createdAt,value
2018-02-02T00:01:03.386Z,3.00
2018-02-02T00:03:33.215Z,3.10
2018-02-02T00:06:09.337Z,3.30
2018-02-02T00:08:36.817Z,3.30
2018-02-02T00:11:05.141Z,3.40
2018-02-02T00:13:36.941Z,3.40
2018-02-02T00:16:14.844Z,3.40
2018-02-02T00:18:43.553Z,3.40
2018-02-02T00:21:11.209Z,3.40
2018-02-02T00:23:38.699Z,3.40
2018-02-02T00:26:07.009Z,3.40
2018-02-02T00:28:41.992Z,3.40
2018-02-02T00:31:10.441Z,3.40
2018-02-02T00:34:08.368Z,3.40
2018-02-02T00:36:35.981Z,3.40
2018-02-02T00:39:03.640Z,3.50
2018-02-02T00:41:33.448Z,3.50
2018-02-02T00:44:03.076Z,3.50
2018-02-02T00:46:47.000Z,3.50
2018-02-02T00:49:15.802Z,3.50
2018-02-02T00:51:54.500Z,3.50
2018-02-02T00:54:32.205Z,3.50
2018-02-02T00:57:16.151Z,3.50
2018-02-02T00:59:43.736Z,3.50
2018-02-02T01:02:11.228Z,3.50
2018-02-02T01:04:38.716Z,3.60
2018-02-02T01:07:06.220Z,3.60
2018-02-02T01:09:33.855Z,3.60
2018-02-02T01:12:08.104Z,3.60
2018-02-02T01:14:35.596Z,3.60
2018-02-02T01:17:03.103Z,3.60
2018-02-02T01:19:32.713Z,3.70
2018-02-02T01:22:03.527Z,3.70
2018-02-02T01:24:32.360Z,3.70
2018-02-02T01:27:03.351Z,3.70
2018-02-02T01:29:33.336Z,3.70
2018-02-02T01:32:03.621Z,3.70
2018-02-02T01:34:32.696Z,3.70
2018-02-02T01:37:01.880Z,3.80
2018-02-02T01:39:30.711Z,3.80
2018-02-02T01:42:02.209Z,3.70
2018-02-02T01:44:32.560Z,3.70
2018-02-02T01:47:02.721Z,3.60
2018-02-02T01:49:31.549Z,3.60
2018-02-02T01:52:02.497Z,3.70
2018-02-02T01:54:31.536Z,3.70
2018-02-02T01:57:00.788Z,3.70
2018-02-02T01:59:31.777Z,3.70
2018-02-02T02:02:02.568Z,3.70
2018-02-02T02:04:35.988Z,3.80
2018-02-02T02:07:03.879Z,3.80
2018-02-02T02:09:31.737Z,3.80
2018-02-02T02:12:11.401Z,3.80
2018-02-02T02:14:38.885Z,3.80
2018-02-02T02:17:07.160Z,3.80
2018-02-02T02:19:34.658Z,3.80
2018-02-02T02:22:02.184Z,3.80
2018-02-02T02:24:31.756Z,3.80
2018-02-02T02:27:01.432Z,3.90
2018-02-02T02:29:31.257Z,3.80
2018-02-02T02:32:00.497Z,3.80
2018-02-02T02:34:31.597Z,3.60
2018-02-02T02:37:01.446Z,3.60
2018-02-02T02:39:31.400Z,3.50
2018-02-02T02:42:01.727Z,3.50
2018-02-02T02:44:30.536Z,3.40
2018-02-02T02:47:00.326Z,3.40
2018-02-02T02:49:30.493Z,3.40
2018-02-02T02:52:00.864Z,3.40
2018-02-02T02:54:31.476Z,3.40
2018-02-02T02:57:00.746Z,3.40
2018-02-02T02:59:30.568Z,3.40
2018-02-02T03:02:01.399Z,3.30
2018-02-02T03:04:31.325Z,3.30
2018-02-02T03:07:00.827Z,3.30
2018-02-02T03:09:31.659Z,3.30
2018-02-02T03:12:01.340Z,3.20
2018-02-02T03:14:30.821Z,3.20
2018-02-02T03:17:01.476Z,3.20
2018-02-02T03:19:31.120Z,3.20
2018-02-02T03:22:00.329Z,3.20
2018-02-02T03:24:31.660Z,3.20
2018-02-02T03:27:00.725Z,3.20
2018-02-02T03:29:30.699Z,3.20
2018-02-02T03:32:00.997Z,3.20
2018-02-02T03:34:31.545Z,3.20
2018-02-02T03:37:01.596Z,3.20
2018-02-02T03:39:31.821Z,3.20
2018-02-02T03:42:01.911Z,3.30
2018-02-02T03:44:31.560Z,3.30
2018-02-02T03:47:00.828Z,3.30
2018-02-02T03:49:30.212Z,3.30
2018-02-02T03:52:10.259Z,3.30
2018-02-02T03:54:37.756Z,3.30
2018-02-02T03:57:05.376Z,3.30
2018-02-02T03:59:32.868Z,3.30
2018-02-02T04:02:01.704Z,3.30
2018-02-02T04:04:31.756Z,3.30
2018-02-02T04:07:00.973Z,3.30
2018-02-02T04:09:31.692Z,3.30
2018-02-02T04:12:01.393Z,3.30
2018-02-02T04:14:40.001Z,3.30
2018-02-02T04:17:07.507Z,3.30
2018-02-02T04:19:35.017Z,3.30
2018-02-02T04:22:03.272Z,3.40
2018-02-02T04:24:31.652Z,3.30
2018-02-02T04:27:01.529Z,3.40
2018-02-02T04:29:42.840Z,3.40
2018-02-02T04:32:10.329Z,3.40
2018-02-02T04:34:37.836Z,3.50
2018-02-02T04:37:05.328Z,3.50
2018-02-02T04:39:33.624Z,3.50
2018-02-02T04:42:02.045Z,3.50
2018-02-02T04:44:31.888Z,3.40
2018-02-02T04:47:01.785Z,3.50
2018-02-02T04:49:31.756Z,3.50
2018-02-02T04:52:02.537Z,3.50
2018-02-02T04:54:31.896Z,3.50
2018-02-02T04:57:01.883Z,3.60
2018-02-02T04:59:31.909Z,3.60
2018-02-02T05:02:01.718Z,3.60
2018-02-02T05:04:31.652Z,3.70
2018-02-02T05:07:01.538Z,3.70
2018-02-02T05:09:30.596Z,3.70
2018-02-02T05:12:01.049Z,3.70
2018-02-02T05:14:31.909Z,3.70
2018-02-02T05:17:01.725Z,3.70
2018-02-02T05:19:32.609Z,3.70
2018-02-02T05:22:01.429Z,3.70
2018-02-02T05:24:30.793Z,3.70
2018-02-02T05:27:00.717Z,3.70
2018-02-02T05:29:30.513Z,3.70
2018-02-02T05:32:01.554Z,3.70
2018-02-02T05:34:31.748Z,3.70
2018-02-02T05:37:01.765Z,3.70
2018-02-02T05:39:30.461Z,3.80
2018-02-02T05:42:00.468Z,3.80
2018-02-02T05:44:30.637Z,3.70
2018-02-02T05:46:59.948Z,3.80
2018-02-02T05:49:29.892Z,3.80
2018-02-02T05:52:00.537Z,3.80
2018-02-02T05:54:29.988Z,3.70
2018-02-02T05:56:59.901Z,3.70
2018-02-02T05:59:29.573Z,3.70
2018-02-02T06:02:00.562Z,3.80
2018-02-02T06:04:32.912Z,3.70
2018-02-02T06:07:01.584Z,3.70
2018-02-02T06:09:40.001Z,3.70
2018-02-02T06:12:07.524Z,3.70
2018-02-02T06:14:35.622Z,3.80
2018-02-02T06:17:03.118Z,3.80
2018-02-02T06:19:37.373Z,3.70
2018-02-02T06:22:04.886Z,3.70
2018-02-02T06:24:33.128Z,3.70
2018-02-02T06:27:00.928Z,3.80
2018-02-02T06:29:30.044Z,3.80
2018-02-02T06:31:59.678Z,3.80
2018-02-02T06:34:29.659Z,3.80
2018-02-02T06:37:02.405Z,3.80
2018-02-02T06:39:30.918Z,3.80
2018-02-02T06:41:59.656Z,3.80
2018-02-02T06:44:29.957Z,3.90
2018-02-02T06:46:59.985Z,3.90
2018-02-02T06:49:29.077Z,3.90
2018-02-02T06:52:00.508Z,3.90
2018-02-02T06:54:30.537Z,4.00
2018-02-02T06:57:00.241Z,4.00
2018-02-02T06:59:29.609Z,4.00
2018-02-02T07:02:00.046Z,3.90
2018-02-02T07:04:29.667Z,3.90
2018-02-02T07:06:58.633Z,3.90
2018-02-02T07:09:30.056Z,3.90
2018-02-02T07:12:00.626Z,3.90
2018-02-02T07:14:39.057Z,3.90
2018-02-02T07:17:06.564Z,3.90
2018-02-02T07:19:34.845Z,3.90
2018-02-02T07:22:03.117Z,3.80
2018-02-02T07:24:30.935Z,3.90
2018-02-02T07:27:00.052Z,3.90
2018-02-02T07:29:31.066Z,3.90
2018-02-02T07:32:00.204Z,4.00
2018-02-02T07:34:30.632Z,4.00
2018-02-02T07:37:00.146Z,4.10
2018-02-02T07:39:29.170Z,4.10
2018-02-02T07:41:59.662Z,4.10
2018-02-02T07:44:27.855Z,4.10
2018-02-02T07:46:58.246Z,4.10
2018-02-02T07:49:28.914Z,4.10
2018-02-02T07:51:59.186Z,4.10
2018-02-02T07:54:26.677Z,4.10
2018-02-02T07:56:54.184Z,4.10
2018-02-02T07:59:22.463Z,4.10
2018-02-02T08:01:49.993Z,4.10
2018-02-02T08:04:17.886Z,4.10
2018-02-02T08:06:46.593Z,4.20
2018-02-02T08:09:14.130Z,4.20
2018-02-02T08:11:41.644Z,4.30
2018-02-02T08:14:09.816Z,4.30
2018-02-02T08:16:38.105Z,4.40
2018-02-02T08:19:05.601Z,4.40
2018-02-02T08:21:34.997Z,4.40
2018-02-02T08:24:06.825Z,4.50
2018-02-02T08:26:36.688Z,4.50
2018-02-02T08:29:15.105Z,4.50
2018-02-02T08:31:42.860Z,4.50
2018-02-02T08:34:10.449Z,4.40
2018-02-02T08:36:38.725Z,4.40
2018-02-02T08:39:06.469Z,4.40
2018-02-02T08:41:35.395Z,4.30
2018-02-02T08:44:04.987Z,4.20
2018-02-02T08:46:44.180Z,4.20
2018-02-02T08:49:12.437Z,4.10
2018-02-02T08:51:40.045Z,4.10
2018-02-02T08:54:09.052Z,4.00
2018-02-02T08:56:39.469Z,4.00
2018-02-02T08:59:22.457Z,4.00
2018-02-02T09:02:00.121Z,3.90
2018-02-02T09:04:27.612Z,3.90
2018-02-02T09:07:03.132Z,3.90
2018-02-02T09:09:30.620Z,3.80
2018-02-02T09:11:58.124Z,3.80
2018-02-02T09:14:26.390Z,3.80
2018-02-02T09:16:54.780Z,3.80
2018-02-02T09:19:24.696Z,3.80
2018-02-02T09:21:54.281Z,3.80
2018-02-02T09:24:24.644Z,3.80
2018-02-02T09:26:54.104Z,3.80
2018-02-02T09:29:22.559Z,3.80
2018-02-02T09:31:52.356Z,3.80
2018-02-02T09:34:22.568Z,3.80
2018-02-02T09:36:52.322Z,3.80
2018-02-02T09:39:22.669Z,3.90
2018-02-02T09:41:58.336Z,3.90
2018-02-02T09:44:26.916Z,4.00
2018-02-02T09:46:54.432Z,4.10
2018-02-02T09:49:23.404Z,4.20
2018-02-02T09:51:53.630Z,4.20
2018-02-02T09:54:23.465Z,4.20
2018-02-02T09:56:53.745Z,4.20
2018-02-02T09:59:28.640Z,4.20
2018-02-02T10:01:57.858Z,4.40
2018-02-02T10:04:25.964Z,4.50
2018-02-02T10:06:55.094Z,4.70
2018-02-02T10:09:28.311Z,4.70
2018-02-02T10:11:55.837Z,4.70
2018-02-02T10:14:24.675Z,4.70
2018-02-02T10:16:53.849Z,4.80
2018-02-02T10:19:31.265Z,4.80
2018-02-02T10:21:58.748Z,4.80
2018-02-02T10:24:26.240Z,4.80
2018-02-02T10:26:55.015Z,4.70
2018-02-02T10:29:24.621Z,4.70
2018-02-02T10:32:08.334Z,4.80
2018-02-02T10:37:23.425Z,4.90
2018-02-02T10:39:57.221Z,4.90
2018-02-02T10:42:25.500Z,5.10
2018-02-02T10:44:55.488Z,5.20
2018-02-02T10:47:24.797Z,5.40
2018-02-02T10:49:54.935Z,5.50
2018-02-02T10:52:24.520Z,5.60
2018-02-02T10:54:55.008Z,5.80
2018-02-02T10:57:26.326Z,5.80
2018-02-02T10:59:56.057Z,5.90
2018-02-02T11:02:34.700Z,6.20
2018-02-02T11:05:02.198Z,6.20
2018-02-02T11:07:33.620Z,6.20
2018-02-02T11:10:01.137Z,6.30
2018-02-02T11:12:28.628Z,6.50
2018-02-02T11:14:56.141Z,6.70
2018-02-02T11:17:24.659Z,6.90
2018-02-02T11:20:06.042Z,6.90
2018-02-02T11:22:33.709Z,6.90
2018-02-02T11:25:01.224Z,7.10
2018-02-02T11:27:29.101Z,7.30
2018-02-02T11:29:56.604Z,7.30
2018-02-02T11:32:25.049Z,7.30
2018-02-02T11:34:55.076Z,7.60
2018-02-02T11:37:24.272Z,7.80
2018-02-02T11:39:54.149Z,7.80
2018-02-02T11:42:23.712Z,7.70
2018-02-02T11:45:22.877Z,7.60
2018-02-02T11:47:54.888Z,7.40
2018-02-02T11:50:26.737Z,7.40
2018-02-02T11:52:58.153Z,7.40
2018-02-02T11:55:26.436Z,7.30
2018-02-02T11:57:58.110Z,7.30
2018-02-02T12:00:26.076Z,7.50
2018-02-02T12:03:02.245Z,7.70
2018-02-02T12:05:34.109Z,8.10
2018-02-02T12:08:10.006Z,8.40
2018-02-02T12:10:53.289Z,9.00
2018-02-02T12:13:25.760Z,9.00
2018-02-02T12:15:54.033Z,9.10
2018-02-02T12:18:22.492Z,9.00
2018-02-02T12:20:54.489Z,9.10
2018-02-02T12:23:24.293Z,8.90
2018-02-02T12:26:03.134Z,8.60
2018-02-02T12:28:37.193Z,8.50
2018-02-02T12:31:08.490Z,8.50
2018-02-02T12:33:48.502Z,8.70
2018-02-02T12:36:29.888Z,8.70
2018-02-02T12:38:57.398Z,8.90
2018-02-02T12:41:30.537Z,9.30
2018-02-02T12:43:58.025Z,9.80
2018-02-02T12:46:26.313Z,10.40
2018-02-02T12:48:59.333Z,10.10
2018-02-02T12:51:26.849Z,10.10
2018-02-02T12:53:54.430Z,9.90
2018-02-02T12:56:22.310Z,9.80
2018-02-02T12:58:51.067Z,9.30
2018-02-02T13:01:24.225Z,8.60
2018-02-02T13:03:52.930Z,8.60
2018-02-02T13:06:22.441Z,8.20
2018-02-02T13:08:51.706Z,8.30
2018-02-02T13:11:21.747Z,8.20
2018-02-02T13:13:52.707Z,8.20
2018-02-02T13:16:24.597Z,8.30
2018-02-02T13:18:55.043Z,8.30
2018-02-02T13:21:31.621Z,8.10
2018-02-02T13:23:59.173Z,8.10
2018-02-02T13:26:26.745Z,8.20
2018-02-02T13:28:54.769Z,8.30
2018-02-02T13:31:26.797Z,8.40
2018-02-02T13:33:54.972Z,8.40
2018-02-02T13:36:23.865Z,8.50
2018-02-02T13:38:53.393Z,8.50
2018-02-02T13:41:22.842Z,8.40
2018-02-02T13:43:52.451Z,8.40
2018-02-02T13:46:22.940Z,8.30
2018-02-02T13:48:53.945Z,7.90
2018-02-02T13:51:29.097Z,7.90
2018-02-02T13:54:00.280Z,7.30
2018-02-02T13:56:33.345Z,7.30
2018-02-02T13:59:01.600Z,6.90
2018-02-02T14:01:40.753Z,6.90
2018-02-02T14:06:59.304Z,6.80
2018-02-02T14:09:27.127Z,6.70
2018-02-02T14:11:56.793Z,6.60
2018-02-02T14:14:25.349Z,6.60
2018-02-02T14:16:55.553Z,6.60
2018-02-02T14:19:33.572Z,6.60
2018-02-02T14:22:01.080Z,6.60
2018-02-02T14:24:31.780Z,6.60
2018-02-02T14:27:08.683Z,6.50
2018-02-02T14:29:36.173Z,6.50
2018-02-02T14:32:04.365Z,6.50
2018-02-02T14:35:03.882Z,6.50
2018-02-02T14:37:31.393Z,6.60
2018-02-02T14:39:58.884Z,6.60
2018-02-02T14:45:33.178Z,6.40
2018-02-02T14:48:00.685Z,6.40
2018-02-02T14:53:29.938Z,6.10
2018-02-02T14:55:59.332Z,6.00
2018-02-02T14:58:27.604Z,6.10
2018-02-02T15:00:55.278Z,6.10
2018-02-02T15:03:32.477Z,6.10
2018-02-02T15:06:09.097Z,6.00
2018-02-02T15:11:55.742Z,5.70
2018-02-02T15:14:29.407Z,5.70
2018-02-02T15:17:41.936Z,5.60
2018-02-02T15:23:25.362Z,5.50
2018-02-02T15:25:59.464Z,5.60
2018-02-02T15:28:27.001Z,5.70
2018-02-02T15:30:56.068Z,5.60
2018-02-02T15:33:24.355Z,5.60
2018-02-02T15:36:04.986Z,5.60
2018-02-02T15:38:50.132Z,5.60
2018-02-02T15:41:28.297Z,5.60
2018-02-02T15:46:50.665Z,5.10
2018-02-02T15:49:22.609Z,4.90
2018-02-02T15:52:22.705Z,4.80
2018-02-02T15:54:50.876Z,4.60
2018-02-02T15:57:23.753Z,4.50
2018-02-02T15:59:52.029Z,4.50
2018-02-02T16:02:30.977Z,4.50
2018-02-02T16:08:02.813Z,4.50
2018-02-02T16:10:31.896Z,4.70
2018-02-02T16:15:52.457Z,4.70
2018-02-02T16:18:21.069Z,4.70
2018-02-02T16:20:50.757Z,4.70
2018-02-02T16:26:23.388Z,4.80
2018-02-02T16:29:01.181Z,4.90
2018-02-02T16:34:21.398Z,4.90
2018-02-02T16:36:56.521Z,4.90
2018-02-02T16:39:47.235Z,4.90
2018-02-02T16:42:24.533Z,4.90
2018-02-02T16:47:51.220Z,4.90
2018-02-02T16:50:29.481Z,4.90
2018-02-02T16:52:56.972Z,4.90
2018-02-02T16:55:49.617Z,4.90
2018-02-02T16:58:21.372Z,4.90
2018-02-02T17:03:53.625Z,4.80
2018-02-02T17:06:24.584Z,4.60
2018-02-02T17:09:00.637Z,4.50
2018-02-02T17:11:28.129Z,4.40
2018-02-02T17:13:55.645Z,4.30
2018-02-02T17:16:31.821Z,4.30
2018-02-02T17:19:00.094Z,4.10
2018-02-02T17:21:50.245Z,4.10
2018-02-02T17:24:32.353Z,4.10
2018-02-02T17:26:59.848Z,4.00
2018-02-02T17:29:27.379Z,4.00
2018-02-02T17:31:54.872Z,4.00
2018-02-02T17:34:22.389Z,4.10
2018-02-02T17:36:49.886Z,4.20
2018-02-02T17:39:18.832Z,4.10
2018-02-02T17:41:48.329Z,4.20
2018-02-02T17:44:20.620Z,4.20
2018-02-02T17:46:51.197Z,4.20
2018-02-02T17:49:20.260Z,4.20
2018-02-02T17:51:51.596Z,4.10
2018-02-02T17:54:21.514Z,4.00
2018-02-02T17:56:50.889Z,3.90
2018-02-02T17:59:29.449Z,3.80
2018-02-02T18:04:55.065Z,3.70
2018-02-02T18:07:34.849Z,3.70
2018-02-02T18:10:05.875Z,3.70
2018-02-02T18:15:53.689Z,3.60
2018-02-02T18:18:21.530Z,3.60
2018-02-02T18:21:03.705Z,3.50
2018-02-02T18:23:33.957Z,3.40
2018-02-02T18:26:04.355Z,3.40
2018-02-02T18:28:33.321Z,3.30
2018-02-02T18:31:00.885Z,3.20
2018-02-02T18:33:29.641Z,3.10
2018-02-02T18:35:57.244Z,3.00
2018-02-02T18:38:24.749Z,3.00
2018-02-02T18:40:52.265Z,2.90
2018-02-02T18:43:19.798Z,2.80
2018-02-02T18:46:04.828Z,2.80
2018-02-02T18:48:50.094Z,2.70
2018-02-02T18:51:20.817Z,2.60
2018-02-02T18:53:59.013Z,2.50
2018-02-02T19:05:49.789Z,2.20
2018-02-02T19:08:20.668Z,2.20
2018-02-02T19:16:53.749Z,2.40
2018-02-02T19:19:22.213Z,2.40
2018-02-02T19:22:00.968Z,2.30
2018-02-02T19:25:05.029Z,2.40
2018-02-02T19:27:59.029Z,2.50
2018-02-02T19:30:26.533Z,2.50
2018-02-02T19:33:06.217Z,2.60
2018-02-02T19:35:33.747Z,2.70
2018-02-02T19:38:35.553Z,2.90
2018-02-02T19:41:03.061Z,2.90
2018-02-02T19:43:38.968Z,3.00
2018-02-02T19:46:06.485Z,3.00
2018-02-02T19:48:33.985Z,3.10
2018-02-02T19:51:01.498Z,3.20
2018-02-02T19:53:56.416Z,3.20
2018-02-02T19:56:27.768Z,3.30
2018-02-02T19:59:04.843Z,3.40
2018-02-02T20:01:32.585Z,3.50
2018-02-02T20:04:13.765Z,3.50
2018-02-02T20:09:37.955Z,3.60
2018-02-02T20:12:05.476Z,3.60
2018-02-02T20:15:13.828Z,3.60
2018-02-02T20:18:00.681Z,3.60
2018-02-02T20:20:30.145Z,3.60
2018-02-02T20:23:14.582Z,3.60
2018-02-02T20:25:45.177Z,3.60
2018-02-02T20:28:32.435Z,3.60
2018-02-02T20:31:01.229Z,3.60
2018-02-02T20:33:35.892Z,3.60
2018-02-02T20:36:04.045Z,3.60
2018-02-02T20:41:19.789Z,3.50
2018-02-02T20:46:50.894Z,3.50
2018-02-02T20:55:37.448Z,3.50
2018-02-02T21:01:02.789Z,3.60
2018-02-02T21:03:31.068Z,3.70
2018-02-02T21:05:58.561Z,3.70
2018-02-02T21:11:48.825Z,3.80
2018-02-02T21:14:25.374Z,3.80
2018-02-02T21:19:51.780Z,4.00
2018-02-02T21:22:51.436Z,4.10
2018-02-02T21:25:19.693Z,4.10
2018-02-02T21:27:47.200Z,4.10
2018-02-02T21:30:14.693Z,4.10
2018-02-02T21:32:47.469Z,4.20
2018-02-02T21:35:18.080Z,4.10
2018-02-02T21:52:58.906Z,4.30
2018-02-02T21:55:46.104Z,4.30
2018-02-02T21:58:23.352Z,4.30
2018-02-02T22:06:39.780Z,4.20
2018-02-02T22:09:20.250Z,4.20
2018-02-02T22:11:50.957Z,4.20
2018-02-02T22:23:25.794Z,4.30
2018-02-02T22:28:47.709Z,4.30
2018-02-02T22:34:49.893Z,4.20
2018-02-02T22:37:27.114Z,4.20
2018-02-02T22:52:13.428Z,4.00
2018-02-02T22:54:45.593Z,4.00
2018-02-02T22:57:46.193Z,4.00
2018-02-02T23:00:14.088Z,4.00
2018-02-02T23:02:42.961Z,4.00
2018-02-02T23:05:26.256Z,4.00
2018-02-02T23:11:12.926Z,4.00
2018-02-02T23:14:12.452Z,4.00
2018-02-02T23:23:12.545Z,4.00
2018-02-02T23:25:58.329Z,4.10
2018-02-02T23:43:16.073Z,4.00
2018-02-02T23:45:54.761Z,3.90
2018-02-02T23:51:28.053Z,3.80
2018-02-02T23:59:44.761Z,3.60
